Time;durP1;ratioP1;P1;durP2;ratioP2;P2;SDS_P1;SDS_P2;PMS_P1;PMS_P2;Temp;Humidity;BMP_temperature;BMP_pressure;BME280_temperature;BME280_humidity;BME280_pressure;Samples;Min_cycle;Max_cycle;Signal;HPM_P1;HPM_P2
2021/09/16 00:00:36;;;;;;;19.23;13.43;;;;;;;13.30;73.92;96724.06;5053931;28;20033;-64
2021/09/16 00:03:01;;;;;;;18.15;14.13;;;;;;;13.31;74.06;96719.66;5053865;28;20103;-63
2021/09/16 00:05:27;;;;;;;21.70;13.55;;;;;;;13.32;74.50;96716.13;5053627;28;20100;-63
2021/09/16 00:07:53;;;;;;;20.48;13.60;;;;;;;13.32;74.72;96714.34;5053680;28;20036;-65
2021/09/16 00:10:18;;;;;;;24.00;14.60;;;;;;;13.33;75.31;96713.41;5053662;28;20533;-65
2021/09/16 00:12:44;;;;;;;19.88;13.57;;;;;;;13.37;74.84;96714.13;5053575;28;20024;-64
2021/09/16 00:15:11;;;;;;;20.60;15.00;;;;;;;13.41;75.28;96723.56;5053631;28;20483;-66
2021/09/16 00:17:37;;;;;;;20.08;15.00;;;;;;;13.44;74.86;96723.44;5052844;28;20048;-64
2021/09/16 00:20:04;;;;;;;24.85;14.93;;;;;;;13.46;74.88;96729.44;5053315;28;20179;-64
2021/09/16 00:22:31;;;;;;;16.30;12.60;;;;;;;13.52;73.91;96729.19;5053428;28;20024;-65
2021/09/16 00:24:56;;;;;;;20.25;15.00;;;;;;;13.47;75.23;96725.06;5053458;28;20502;-64
2021/09/16 00:27:22;;;;;;;21.80;14.85;;;;;;;13.42;75.34;96729.69;5053523;28;20013;-63
2021/09/16 00:29:48;;;;;;;20.92;14.25;;;;;;;13.37;75.50;96732.53;5053253;28;20032;-65
2021/09/16 00:32:13;;;;;;;23.27;14.48;;;;;;;13.38;75.35;96723.72;5053292;28;20025;-63
2021/09/16 00:34:39;;;;;;;20.77;16.20;;;;;;;13.35;75.37;96719.47;5053277;28;20025;-67
2021/09/16 00:37:05;;;;;;;22.55;14.00;;;;;;;13.37;75.24;96717.59;5053213;28;20017;-65
2021/09/16 00:39:30;;;;;;;20.35;14.70;;;;;;;13.38;75.06;96721.09;5053029;28;20039;-64
2021/09/16 00:41:56;;;;;;;23.38;14.45;;;;;;;13.38;74.53;96727.22;5053164;28;20032;-66
2021/09/16 00:44:21;;;;;;;19.60;14.32;;;;;;;13.38;74.37;96731.59;5053208;28;20027;-66
2021/09/16 00:46:47;;;;;;;17.88;13.30;;;;;;;13.35;74.28;96724.72;5053213;28;20021;-64
2021/09/16 00:49:13;;;;;;;18.25;12.90;;;;;;;13.37;73.87;96732.53;5053201;28;20467;-67
2021/09/16 00:51:39;;;;;;;26.73;15.13;;;;;;;13.32;74.25;96735.38;5052992;28;20021;-65
2021/09/16 00:54:08;;;;;;;23.00;15.43;;;;;;;13.32;75.33;96731.88;5052978;28;20064;-65
2021/09/16 00:56:34;;;;;;;23.13;14.73;;;;;;;13.34;74.76;96727.41;5052925;28;20031;-66
2021/09/16 00:59:02;;;;;;;19.25;14.75;;;;;;;13.33;74.36;96728.34;5052648;28;20041;-63
2021/09/16 01:01:30;;;;;;;19.33;13.60;;;;;;;13.25;74.66;96726.91;5053035;28;20028;-67
2021/09/16 01:03:56;;;;;;;22.98;14.60;;;;;;;13.25;74.97;96724.28;5052831;28;20021;-65
2021/09/16 01:06:26;;;;;;;21.35;14.57;;;;;;;13.19;75.11;96718.47;5052838;28;20059;-63
2021/09/16 01:08:53;;;;;;;20.37;14.03;;;;;;;13.13;75.47;96730.94;5052919;28;20032;-64
2021/09/16 01:11:20;;;;;;;19.60;13.55;;;;;;;13.16;75.02;96732.59;5052821;28;20071;-64
2021/09/16 01:13:46;;;;;;;23.10;14.52;;;;;;;13.14;74.77;96730.03;5052852;28;20032;-64
2021/09/16 01:16:13;;;;;;;20.20;14.43;;;;;;;13.14;74.75;96729.19;5052842;28;20035;-66
2021/09/16 01:18:39;;;;;;;22.35;13.65;;;;;;;13.11;74.18;96724.06;5052637;28;20021;-66
2021/09/16 01:21:05;;;;;;;23.05;15.95;;;;;;;13.12;75.31;96724.00;5052850;28;20028;-66
2021/09/16 01:23:31;;;;;;;21.63;15.15;;;;;;;13.13;75.43;96730.94;5052768;28;20482;-64
2021/09/16 01:25:57;;;;;;;17.83;13.55;;;;;;;13.16;75.02;96723.84;5052880;28;20032;-64
2021/09/16 01:28:22;;;;;;;18.75;14.10;;;;;;;13.15;74.58;96723.00;5053587;28;20029;-67
2021/09/16 01:30:49;;;;;;;19.35;13.05;;;;;;;13.12;74.09;96715.25;5056658;28;20029;-66
2021/09/16 01:33:15;;;;;;;20.23;13.32;;;;;;;13.10;73.47;96722.38;5056688;28;20541;-63
2021/09/16 01:35:41;;;;;;;22.83;14.60;;;;;;;13.08;75.71;96718.94;5056627;28;20025;-63
2021/09/16 01:38:06;;;;;;;23.05;15.60;;;;;;;13.03;75.80;96716.53;5056558;28;20021;-65
2021/09/16 01:40:32;;;;;;;20.65;14.15;;;;;;;13.06;74.92;96712.94;5056402;28;20021;-62
2021/09/16 01:42:58;;;;;;;20.48;13.55;;;;;;;13.02;75.19;96710.44;5056398;28;20028;-63
2021/09/16 01:45:26;;;;;;;19.13;14.23;;;;;;;13.01;75.05;96708.72;5056327;28;20112;-64
2021/09/16 01:47:53;;;;;;;20.17;14.18;;;;;;;12.96;74.79;96702.84;5056297;28;20025;-64
2021/09/16 01:50:21;;;;;;;20.65;14.45;;;;;;;12.96;74.74;96708.09;5056335;28;20104;-63
2021/09/16 01:52:47;;;;;;;18.05;13.77;;;;;;;12.98;74.84;96705.38;5056411;28;20086;-64
2021/09/16 01:55:15;;;;;;;24.55;15.63;;;;;;;12.98;75.26;96708.84;5056177;28;20482;-66
2021/09/16 01:57:41;;;;;;;21.00;14.77;;;;;;;12.99;74.76;96705.31;5056189;28;20025;-66
2021/09/16 02:00:08;;;;;;;21.63;14.07;;;;;;;13.00;74.46;96709.63;5055860;28;20450;-63
2021/09/16 02:02:34;;;;;;;18.67;13.43;;;;;;;12.98;74.51;96705.38;5056113;28;20079;-64
2021/09/16 02:05:00;;;;;;;22.27;14.82;;;;;;;12.97;74.19;96704.53;5056043;28;20033;-66
2021/09/16 02:07:25;;;;;;;24.17;15.10;;;;;;;12.99;75.28;96700.06;5055926;28;20017;-65
2021/09/16 02:09:51;;;;;;;22.42;15.60;;;;;;;12.96;75.38;96702.84;5055973;28;20036;-63
2021/09/16 02:12:17;;;;;;;19.15;15.15;;;;;;;12.98;74.99;96708.84;5056035;28;20032;-63
2021/09/16 02:14:43;;;;;;;21.20;14.35;;;;;;;12.96;74.75;96701.97;5055905;28;20017;-64
2021/09/16 02:17:08;;;;;;;23.85;15.77;;;;;;;12.97;74.37;96699.28;5055774;28;20017;-66
2021/09/16 02:19:34;;;;;;;19.27;14.07;;;;;;;12.92;74.64;96698.66;5055643;28;20025;-64
2021/09/16 02:21:59;;;;;;;22.25;15.05;;;;;;;12.91;75.11;96696.09;5055779;28;20388;-63
2021/09/16 02:24:25;;;;;;;23.10;15.88;;;;;;;12.87;75.39;96701.47;5055662;28;20017;-65
2021/09/16 02:26:51;;;;;;;24.45;16.02;;;;;;;12.83;75.37;96694.66;5055639;28;20445;-63
2021/09/16 02:29:16;;;;;;;23.42;16.40;;;;;;;12.77;76.18;96697.56;5055564;28;20021;-63
2021/09/16 02:31:42;;;;;;;27.02;14.70;;;;;;;12.77;75.62;96693.13;5055577;28;20459;-65
2021/09/16 02:34:11;;;;;;;22.23;16.35;;;;;;;12.75;75.75;96688.88;5055461;28;20032;-61
2021/09/16 02:36:36;;;;;;;20.52;15.43;;;;;;;12.70;76.20;96685.63;5055571;28;20017;-64
2021/09/16 02:39:02;;;;;;;27.63;13.65;;;;;;;12.71;76.02;96695.19;5055383;28;20021;-64
2021/09/16 02:41:28;;;;;;;20.80;14.88;;;;;;;12.73;75.79;96695.97;5054579;28;20021;-62
2021/09/16 02:43:54;;;;;;;18.88;14.27;;;;;;;12.73;75.70;96691.56;5055306;28;20029;-64
2021/09/16 02:46:19;;;;;;;21.30;15.07;;;;;;;12.74;75.44;96689.81;5055286;28;20382;-62
2021/09/16 02:48:45;;;;;;;21.45;13.32;;;;;;;12.75;75.17;96700.25;5055195;28;20450;-62
2021/09/16 02:51:11;;;;;;;25.48;15.50;;;;;;;12.75;75.60;96692.38;5055092;28;20025;-65
2021/09/16 02:53:37;;;;;;;24.40;15.25;;;;;;;12.75;75.59;96689.75;5055057;28;20029;-61
2021/09/16 02:56:02;;;;;;;25.33;15.70;;;;;;;12.73;75.80;96685.47;5055021;28;20021;-65
2021/09/16 02:58:28;;;;;;;26.50;15.10;;;;;;;12.75;75.81;96688.88;5054803;28;20025;-65
2021/09/16 03:00:53;;;;;;;21.48;14.00;;;;;;;12.77;75.40;96687.88;5055019;28;20044;-62
2021/09/16 03:03:19;;;;;;;19.60;13.75;;;;;;;12.77;74.63;96689.69;5055066;28;20105;-64
2021/09/16 03:05:46;;;;;;;24.33;14.55;;;;;;;12.76;74.91;96691.44;5054927;28;20025;-65
2021/09/16 03:08:12;;;;;;;19.92;15.15;;;;;;;12.71;75.68;96695.19;5054922;28;20028;-63
2021/09/16 03:10:38;;;;;;;18.70;14.05;;;;;;;12.75;75.15;96691.50;5054756;28;20027;-63
2021/09/16 03:13:04;;;;;;;25.63;15.65;;;;;;;12.66;75.17;96705.88;5054858;28;20020;-63
2021/09/16 03:15:29;;;;;;;19.08;15.25;;;;;;;12.67;75.59;96701.50;5054679;28;20033;-65
2021/09/16 03:17:55;;;;;;;26.33;15.85;;;;;;;12.65;76.13;96704.19;5054721;28;20053;-63
2021/09/16 03:20:20;;;;;;;19.60;13.95;;;;;;;12.67;75.56;96712.84;5054472;28;20025;-61
2021/09/16 03:22:46;;;;;;;19.38;14.27;;;;;;;12.70;75.01;96710.09;5054782;28;20052;-63
2021/09/16 03:25:12;;;;;;;22.52;14.25;;;;;;;12.66;75.02;96708.50;5054672;28;20383;-63
2021/09/16 03:27:38;;;;;;;21.98;14.98;;;;;;;12.67;75.93;96696.25;5054575;28;20047;-61
2021/09/16 03:30:06;;;;;;;21.48;13.82;;;;;;;12.69;76.10;96710.16;5054432;28;20465;-65
2021/09/16 03:32:32;;;;;;;24.92;14.07;;;;;;;12.64;76.39;96698.09;5054305;28;20017;-65
2021/09/16 03:34:58;;;;;;;22.60;14.75;;;;;;;12.58;76.56;96703.59;5054563;28;20402;-63
2021/09/16 03:37:23;;;;;;;23.42;14.68;;;;;;;12.59;76.53;96709.72;5054413;28;20033;-63
2021/09/16 03:39:49;;;;;;;21.42;15.48;;;;;;;12.60;75.96;96707.03;5054255;28;20480;-64
2021/09/16 03:42:15;;;;;;;21.33;14.65;;;;;;;12.55;76.36;96708.97;5054066;28;20021;-65
2021/09/16 03:44:40;;;;;;;27.02;15.93;;;;;;;12.54;76.69;96709.91;5054136;28;20021;-63
2021/09/16 03:47:06;;;;;;;27.77;13.93;;;;;;;12.59;76.13;96717.59;5054038;28;20021;-65
2021/09/16 03:49:35;;;;;;;21.77;12.77;;;;;;;12.60;75.44;96721.91;5053955;28;20049;-64
2021/09/16 03:52:02;;;;;;;23.00;13.65;;;;;;;12.63;75.34;96720.00;5053119;28;20464;-65
2021/09/16 03:54:29;;;;;;;24.58;14.43;;;;;;;12.59;75.54;96717.59;5053915;28;20021;-65
2021/09/16 03:56:54;;;;;;;21.88;14.18;;;;;;;12.52;75.77;96711.72;5053857;28;20048;-62
2021/09/16 03:59:20;;;;;;;24.35;15.30;;;;;;;12.47;76.56;96711.09;5053478;28;20491;-64
2021/09/16 04:01:45;;;;;;;25.42;15.82;;;;;;;12.42;77.30;96721.78;5053919;28;20021;-64
2021/09/16 04:04:11;;;;;;;22.00;13.98;;;;;;;12.45;77.16;96710.28;5054108;28;20032;-62
2021/09/16 04:06:37;;;;;;;22.48;15.05;;;;;;;12.49;75.96;96719.72;5053645;28;20017;-63
2021/09/16 04:09:02;;;;;;;22.02;13.43;;;;;;;12.54;76.20;96711.66;5053861;28;20029;-64
2021/09/16 04:11:28;;;;;;;23.48;15.43;;;;;;;12.59;76.34;96717.59;5053761;28;20532;-63
2021/09/16 04:13:53;;;;;;;22.15;15.85;;;;;;;12.66;76.64;96724.25;5053693;28;20040;-62
2021/09/16 04:16:19;;;;;;;25.77;15.27;;;;;;;12.66;77.03;96723.41;5053622;28;20079;-65
2021/09/16 04:18:45;;;;;;;24.73;15.30;;;;;;;12.72;76.83;96721.38;5053521;28;20021;-62
2021/09/16 04:21:10;;;;;;;17.50;12.68;;;;;;;12.81;75.83;96728.00;5053470;28;20036;-65
2021/09/16 04:23:36;;;;;;;20.80;13.57;;;;;;;12.83;75.21;96720.06;5053310;28;20379;-64
2021/09/16 04:26:02;;;;;;;27.55;14.73;;;;;;;12.89;76.10;96720.63;5053565;28;20060;-62
2021/09/16 04:28:27;;;;;;;20.55;15.80;;;;;;;12.95;76.03;96716.03;5053419;28;20422;-63
2021/09/16 04:30:53;;;;;;;27.10;14.35;;;;;;;13.02;75.52;96720.06;5053353;28;20029;-63
2021/09/16 04:33:20;;;;;;;21.10;13.70;;;;;;;13.08;75.40;96722.44;5053178;28;20028;-64
2021/09/16 04:35:46;;;;;;;23.13;14.10;;;;;;;13.14;75.10;96716.91;5053162;28;20028;-62
2021/09/16 04:38:15;;;;;;;21.45;13.25;;;;;;;13.26;75.48;96725.13;5053309;28;20085;-64
2021/09/16 04:40:41;;;;;;;16.45;11.93;;;;;;;13.48;74.69;96714.47;5053176;28;20383;-63
2021/09/16 04:43:07;;;;;;;15.85;12.45;;;;;;;13.90;73.85;96719.56;5053090;28;20025;-63
2021/09/16 04:45:33;;;;;;;18.77;12.25;;;;;;;14.44;72.17;96728.34;5053251;28;20025;-66
2021/09/16 04:47:58;;;;;;;17.15;10.35;;;;;;;15.03;70.08;96730.63;5053137;28;20490;-63
2021/09/16 04:50:24;;;;;;;15.10;10.07;;;;;;;15.64;68.70;96725.59;5053092;28;20133;-64
2021/09/16 04:52:49;;;;;;;20.33;11.32;;;;;;;16.27;67.73;96725.63;5053049;28;20062;-63
2021/09/16 04:55:15;;;;;;;14.27;9.70;;;;;;;16.87;65.94;96724.78;5053025;28;20021;-63
2021/09/16 04:57:40;;;;;;;12.73;9.43;;;;;;;17.51;63.78;96724.41;5052898;28;20460;-65
2021/09/16 05:00:08;;;;;;;14.05;8.82;;;;;;;18.11;61.50;96724.16;5052691;28;20056;-65
2021/09/16 05:02:34;;;;;;;14.98;8.95;;;;;;;18.73;59.08;96724.50;5053123;28;20025;-66
2021/09/16 05:04:59;;;;;;;11.68;8.63;;;;;;;19.23;58.39;96712.31;5059394;28;20486;-62
2021/09/16 05:07:25;;;;;;;14.15;8.73;;;;;;;19.76;57.32;96716.53;5059531;28;20028;-63
2021/09/16 05:09:50;;;;;;;12.32;8.07;;;;;;;20.31;56.13;96721.41;5059448;28;20116;-66
2021/09/16 05:12:16;;;;;;;14.73;8.50;;;;;;;20.92;54.45;96719.53;5059548;28;20029;-66
2021/09/16 05:14:41;;;;;;;12.52;7.95;;;;;;;21.57;53.19;96714.44;5059476;28;20520;-65
2021/09/16 05:17:07;;;;;;;12.98;7.65;;;;;;;22.08;52.12;96722.81;5059497;28;20024;-65
2021/09/16 05:19:33;;;;;;;11.63;7.68;;;;;;;22.52;50.60;96715.75;5059326;28;20062;-64
2021/09/16 05:21:58;;;;;;;14.88;7.40;;;;;;;22.96;49.93;96719.13;5059318;28;20481;-65
2021/09/16 05:24:24;;;;;;;14.27;8.35;;;;;;;23.39;49.02;96716.38;5059497;28;20079;-63
2021/09/16 05:26:50;;;;;;;11.00;7.53;;;;;;;23.84;48.82;96716.94;5059410;28;20033;-64
2021/09/16 05:29:15;;;;;;;9.55;7.30;;;;;;;24.26;47.37;96723.06;5059368;28;20040;-65
2021/09/16 05:31:41;;;;;;;9.50;7.78;;;;;;;24.63;46.47;96719.66;5059246;28;20028;-66
2021/09/16 05:34:06;;;;;;;8.52;7.35;;;;;;;25.05;45.82;96725.66;5059553;28;20024;-66
2021/09/16 05:36:35;;;;;;;10.40;7.70;;;;;;;25.43;45.75;96720.31;5059343;28;20356;-63
2021/09/16 05:39:01;;;;;;;9.20;6.60;;;;;;;25.98;44.76;96724.81;5059234;28;20025;-63
2021/09/16 05:41:26;;;;;;;10.85;7.00;;;;;;;26.47;44.13;96718.28;5059264;28;20021;-63
2021/09/16 05:43:53;;;;;;;11.40;7.45;;;;;;;26.96;42.77;96719.63;5059145;28;20116;-65
2021/09/16 05:46:18;;;;;;;11.48;7.72;;;;;;;27.31;42.07;96719.69;5059131;28;20060;-64
2021/09/16 05:48:44;;;;;;;12.32;7.88;;;;;;;27.80;41.10;96722.75;5059170;28;20115;-64
2021/09/16 05:51:09;;;;;;;9.98;7.63;;;;;;;28.19;40.63;96715.94;5059421;28;20036;-64
2021/09/16 05:53:37;;;;;;;9.38;7.07;;;;;;;28.49;40.68;96719.88;5059227;28;20094;-66
2021/09/16 05:56:02;;;;;;;16.17;8.18;;;;;;;28.92;39.10;96731.47;5059103;28;20025;-68
2021/09/16 05:58:28;;;;;;;9.77;7.78;;;;;;;29.26;39.34;96733.09;5058887;28;20079;-66
2021/09/16 06:00:54;;;;;;;12.30;7.78;;;;;;;29.56;38.50;96730.69;5059183;28;20033;-65
2021/09/16 06:03:20;;;;;;;8.65;7.18;;;;;;;29.77;39.41;96724.66;5059058;28;20134;-63
2021/09/16 06:05:45;;;;;;;9.93;7.35;;;;;;;30.12;38.13;96731.56;5059097;28;20037;-63
2021/09/16 06:08:11;;;;;;;11.88;7.47;;;;;;;30.52;37.29;96729.63;5059040;28;20017;-62
2021/09/16 06:10:36;;;;;;;13.55;8.80;;;;;;;30.83;38.11;96735.97;5059023;28;20105;-63
2021/09/16 06:13:02;;;;;;;10.88;7.38;;;;;;;31.00;36.53;96738.53;5058946;28;20083;-65
2021/09/16 06:15:27;;;;;;;14.32;7.80;;;;;;;31.15;38.01;96739.38;5056131;28;20020;-63
2021/09/16 06:17:53;;;;;;;8.23;7.25;;;;;;;31.18;37.27;96732.75;5055733;28;20017;-63
2021/09/16 06:20:18;;;;;;;11.02;7.70;;;;;;;31.14;37.58;96734.16;5055533;28;20029;-67
2021/09/16 06:22:47;;;;;;;11.50;6.82;;;;;;;31.25;38.01;96735.56;5055763;28;20032;-63
2021/09/16 06:25:14;;;;;;;10.85;7.43;;;;;;;31.36;37.73;96737.00;5055801;28;20025;-68
2021/09/16 06:27:41;;;;;;;12.00;7.45;;;;;;;31.24;35.78;96740.13;5055689;28;20024;-63
2021/09/16 06:30:08;;;;;;;9.13;7.65;;;;;;;30.67;35.33;96744.19;5055662;28;20028;-61
2021/09/16 06:32:34;;;;;;;11.30;8.13;;;;;;;30.70;35.02;96738.44;5055677;28;20096;-67
2021/09/16 06:35:00;;;;;;;13.43;9.00;;;;;;;30.63;34.81;96746.41;5055403;28;20419;-67
2021/09/16 06:37:25;;;;;;;11.93;8.15;;;;;;;30.66;36.89;96742.50;5055500;28;20032;-63
2021/09/16 06:39:51;;;;;;;14.40;8.43;;;;;;;30.78;36.67;96741.06;5055315;28;20029;-65
2021/09/16 06:42:16;;;;;;;12.68;8.68;;;;;;;30.74;36.12;96751.38;5055528;28;20017;-63
2021/09/16 06:44:43;;;;;;;11.23;8.05;;;;;;;30.72;35.33;96747.16;5055334;28;20380;-65
2021/09/16 06:47:09;;;;;;;11.15;7.95;;;;;;;30.67;34.10;96746.88;5055175;28;20021;-66
2021/09/16 06:49:39;;;;;;;12.07;8.15;;;;;;;30.52;35.57;96747.69;5055163;28;20031;-60
2021/09/16 06:52:05;;;;;;;12.77;7.82;;;;;;;30.43;36.58;96743.34;5055146;28;20037;-65
2021/09/16 06:54:31;;;;;;;13.10;8.30;;;;;;;30.48;35.80;96749.88;5055150;28;20432;-65
2021/09/16 06:56:56;;;;;;;10.00;7.55;;;;;;;30.46;36.95;96751.09;5054965;28;20024;-66
2021/09/16 06:59:22;;;;;;;14.43;8.23;;;;;;;30.51;36.46;96749.53;5054813;28;20399;-61
2021/09/16 07:01:47;;;;;;;9.00;7.95;;;;;;;30.41;38.59;96743.53;5055000;28;20028;-65
2021/09/16 07:04:13;;;;;;;13.73;8.77;;;;;;;30.49;37.39;96746.16;5054966;28;20020;-65
2021/09/16 07:06:39;;;;;;;14.90;7.80;;;;;;;30.13;37.58;96742.16;5054865;28;20032;-61
2021/09/16 07:09:04;;;;;;;12.80;8.30;;;;;;;29.96;37.93;96745.97;5054885;28;20029;-62
2021/09/16 07:11:30;;;;;;;16.40;8.82;;;;;;;30.08;37.22;96741.03;5054775;28;20028;-67
2021/09/16 07:13:56;;;;;;;13.63;8.38;;;;;;;30.31;36.49;96745.63;5054721;28;20484;-65
2021/09/16 07:16:21;;;;;;;9.23;8.07;;;;;;;30.50;36.26;96755.94;5054687;28;20059;-66
2021/09/16 07:18:47;;;;;;;11.95;7.88;;;;;;;30.67;34.58;96750.41;5054658;28;20486;-61
2021/09/16 07:21:12;;;;;;;11.70;7.97;;;;;;;30.86;34.50;96754.50;5053362;28;20037;-65
2021/09/16 07:23:38;;;;;;;15.50;8.43;;;;;;;30.93;35.27;96756.44;5054461;28;20024;-63
2021/09/16 07:26:04;;;;;;;10.25;7.50;;;;;;;31.01;35.33;96768.03;5054467;28;20163;-67
2021/09/16 07:28:34;;;;;;;10.77;8.35;;;;;;;31.11;34.44;96762.38;5054633;28;20024;-60
2021/09/16 07:31:00;;;;;;;13.18;7.70;;;;;;;31.11;33.90;96753.41;5054547;28;20422;-64
2021/09/16 07:33:25;;;;;;;19.40;8.07;;;;;;;31.30;34.39;96756.63;5054361;28;20025;-66
2021/09/16 07:35:51;;;;;;;14.02;8.35;;;;;;;31.50;34.59;96746.97;5054455;28;20021;-64
2021/09/16 07:38:17;;;;;;;11.88;7.38;;;;;;;31.47;33.25;96760.00;5054332;28;20099;-67
2021/09/16 07:40:42;;;;;;;10.43;8.02;;;;;;;31.33;35.68;96761.66;5054144;28;20741;-63
2021/09/16 07:43:09;;;;;;;11.93;7.38;;;;;;;31.24;33.80;96766.31;5054164;28;20021;-66
2021/09/16 07:45:35;;;;;;;13.57;7.78;;;;;;;31.31;34.37;96767.25;5054176;28;20108;-65
2021/09/16 07:48:01;;;;;;;13.10;7.22;;;;;;;31.35;33.53;96756.91;5054002;28;20100;-66
2021/09/16 07:50:27;;;;;;;9.52;7.20;;;;;;;31.44;33.94;96755.81;5054178;28;20463;-65
2021/09/16 07:52:52;;;;;;;13.48;7.47;;;;;;;31.57;33.14;96755.13;5054054;28;20059;-66
2021/09/16 07:55:18;;;;;;;8.50;7.45;;;;;;;31.69;33.47;96749.28;5053935;28;20021;-61
2021/09/16 07:57:44;;;;;;;13.52;7.30;;;;;;;31.73;32.19;96751.41;5053968;28;20056;-66
2021/09/16 08:00:10;;;;;;;8.32;6.85;;;;;;;31.71;32.20;96755.31;5053589;28;20098;-62
2021/09/16 08:02:55;;;;;;;15.95;8.20;;;;;;;31.74;30.99;96760.34;5053811;28;20029;-66
2021/09/16 08:05:21;;;;;;;13.07;7.75;;;;;;;31.89;30.78;96754.91;5053542;28;20167;-67
2021/09/16 08:07:47;;;;;;;10.75;7.72;;;;;;;32.12;29.41;96756.69;5053714;28;20125;-64
2021/09/16 08:10:12;;;;;;;9.43;7.57;;;;;;;32.26;32.41;96758.50;5053682;28;20038;-64
2021/09/16 08:12:38;;;;;;;11.45;6.80;;;;;;;32.10;31.95;96754.16;5053501;28;20491;-63
2021/09/16 08:15:05;;;;;;;16.75;7.38;;;;;;;32.20;31.48;96753.84;5053805;28;20029;-63
2021/09/16 08:17:31;;;;;;;12.35;7.57;;;;;;;32.28;29.88;96755.59;5053611;28;20120;-62
2021/09/16 08:19:57;;;;;;;14.60;6.95;;;;;;;32.20;28.54;96753.84;5053342;28;20538;-61
2021/09/16 08:22:22;;;;;;;10.85;6.93;;;;;;;32.30;29.72;96750.84;5053577;28;20065;-63
2021/09/16 08:24:48;;;;;;;12.10;7.03;;;;;;;32.16;29.90;96747.16;5053290;28;20021;-62
2021/09/16 08:27:14;;;;;;;12.95;6.70;;;;;;;32.14;30.71;96749.19;5053319;28;20029;-67
2021/09/16 08:29:40;;;;;;;10.65;7.50;;;;;;;31.97;30.21;96749.44;5053340;28;20021;-65
2021/09/16 08:32:06;;;;;;;7.88;6.90;;;;;;;31.94;28.60;96754.38;5053358;28;20467;-65
2021/09/16 08:34:32;;;;;;;15.80;7.72;;;;;;;31.58;28.27;96743.31;5053274;28;20025;-62
2021/09/16 08:36:58;;;;;;;14.63;8.07;;;;;;;31.60;29.24;96738.56;5053252;28;20478;-63
2021/09/16 08:39:23;;;;;;;14.05;7.43;;;;;;;31.60;31.31;96745.84;5052715;28;20112;-63
2021/09/16 08:41:49;;;;;;;11.48;7.40;;;;;;;31.37;30.84;96738.66;5053144;28;20036;-64
2021/09/16 08:44:18;;;;;;;15.10;7.70;;;;;;;31.37;31.22;96744.06;5053305;28;20028;-66
2021/09/16 08:46:44;;;;;;;16.05;7.68;;;;;;;31.11;31.85;96737.22;5053320;28;20029;-65
2021/09/16 08:49:10;;;;;;;18.13;8.65;;;;;;;31.44;33.11;96741.44;5053099;28;20127;-66
2021/09/16 08:51:39;;;;;;;10.68;7.40;;;;;;;31.71;31.41;96736.41;5053086;28;20114;-65
2021/09/16 08:54:06;;;;;;;12.10;7.65;;;;;;;31.77;29.92;96739.19;5053110;28;20017;-64
2021/09/16 08:56:32;;;;;;;15.18;9.13;;;;;;;31.74;29.30;96738.72;5053124;28;20371;-62
2021/09/16 08:59:03;;;;;;;12.80;9.38;;;;;;;31.74;30.81;96742.28;5052741;28;20447;-62
2021/09/16 09:01:29;;;;;;;15.48;8.85;;;;;;;31.78;29.45;96738.16;5053069;28;20379;-67
2021/09/16 09:03:54;;;;;;;16.67;8.88;;;;;;;31.85;30.96;96737.41;5052933;28;20017;-64
2021/09/16 09:06:39;;;;;;;15.48;9.93;;;;;;;31.91;31.25;96736.66;5052960;28;20035;-62
2021/09/16 09:09:15;;;;;;;17.73;9.70;;;;;;;31.86;32.38;96729.09;5052976;28;20028;-64
2021/09/16 09:12:09;;;;;;;14.35;9.88;;;;;;;31.77;30.67;96727.53;5052857;28;20025;-64
2021/09/16 09:14:40;;;;;;;16.88;9.73;;;;;;;31.68;30.75;96734.91;5052886;28;20033;-66
2021/09/16 09:17:19;;;;;;;20.25;10.10;;;;;;;31.67;29.76;96730.53;5052768;28;20021;-67
2021/09/16 09:19:47;;;;;;;19.15;9.10;;;;;;;31.70;31.06;96730.16;5052814;28;20033;-64
2021/09/16 09:22:13;;;;;;;14.20;9.50;;;;;;;31.69;28.55;96733.06;5052827;28;20025;-66
2021/09/16 09:24:46;;;;;;;16.63;9.18;;;;;;;31.27;30.31;96728.09;5052751;28;20044;-61
2021/09/16 09:27:22;;;;;;;14.55;9.07;;;;;;;31.12;29.78;96726.22;5052726;28;20021;-63
2021/09/16 09:30:28;;;;;;;19.92;9.68;;;;;;;31.09;31.71;96723.91;5052673;28;20033;-61
2021/09/16 09:32:53;;;;;;;17.67;9.98;;;;;;;31.14;32.19;96718.78;5041762;28;20088;-64
2021/09/16 09:35:43;;;;;;;14.18;9.13;;;;;;;30.96;30.77;96721.84;5052732;28;20025;-65
2021/09/16 09:38:24;;;;;;;21.60;8.48;;;;;;;30.96;31.56;96727.25;5049715;28;20033;-64
2021/09/16 09:40:58;;;;;;;19.70;9.32;;;;;;;30.97;28.98;96720.81;5052642;28;20471;-63
2021/09/16 09:43:37;;;;;;;21.20;8.43;;;;;;;30.71;28.69;96719.34;5052613;28;20024;-61
2021/09/16 09:46:03;;;;;;;17.05;8.73;;;;;;;30.43;27.76;96716.38;5052612;28;20041;-64
2021/09/16 09:48:30;;;;;;;26.30;9.35;;;;;;;30.22;26.95;96704.41;5052482;28;20021;-64
2021/09/16 09:50:56;;;;;;;13.95;8.30;;;;;;;30.22;28.04;96717.88;5054233;28;20020;-65
2021/09/16 09:53:22;;;;;;;13.10;8.80;;;;;;;30.21;27.28;96703.56;5056178;28;20494;-63
2021/09/16 09:55:49;;;;;;;16.58;8.27;;;;;;;30.12;31.37;96713.53;5056340;28;20029;-66
2021/09/16 09:58:28;;;;;;;23.10;9.05;;;;;;;30.20;29.82;96706.44;5056072;28;20032;-63
2021/09/16 10:00:53;;;;;;;11.65;8.43;;;;;;;30.23;29.51;96712.31;5056213;28;20025;-65
2021/09/16 10:03:28;;;;;;;14.55;8.43;;;;;;;30.31;30.15;96697.91;5056057;28;20021;-65
2021/09/16 10:05:54;;;;;;;18.25;8.55;;;;;;;30.45;29.39;96695.44;5056049;28;20037;-62
2021/09/16 10:08:19;;;;;;;17.08;9.35;;;;;;;30.34;28.71;96694.03;5056156;28;20032;-67
2021/09/16 10:10:51;;;;;;;15.40;9.05;;;;;;;30.34;32.03;96692.16;5056019;28;20108;-64
2021/09/16 10:13:17;;;;;;;12.90;7.93;;;;;;;30.44;27.75;96697.31;5055987;28;20029;-66
2021/09/16 10:15:48;;;;;;;14.20;7.70;;;;;;;30.48;28.61;96693.22;5055773;28;20025;-65
2021/09/16 10:18:14;;;;;;;13.13;7.75;;;;;;;30.30;26.43;96690.84;5055907;28;20079;-61
2021/09/16 10:20:39;;;;;;;13.05;7.47;;;;;;;30.25;28.57;96693.25;5055826;28;20037;-67
2021/09/16 10:23:07;;;;;;;15.48;7.78;;;;;;;30.16;27.97;96688.91;5055955;28;20021;-63
2021/09/16 10:25:33;;;;;;;12.15;7.88;;;;;;;30.13;28.84;96690.09;5055747;28;20025;-60
2021/09/16 10:28:06;;;;;;;11.88;7.90;;;;;;;30.29;28.40;96691.03;5055633;28;20461;-62
2021/09/16 10:30:35;;;;;;;12.05;8.13;;;;;;;30.29;30.37;96688.31;5055582;28;20021;-64
2021/09/16 10:33:15;;;;;;;16.90;7.80;;;;;;;30.27;30.40;96681.25;5055533;28;20021;-64
2021/09/16 10:35:47;;;;;;;13.70;7.60;;;;;;;30.41;31.43;96683.34;5055454;28;20558;-66
2021/09/16 10:38:16;;;;;;;13.70;8.88;;;;;;;30.09;28.47;96677.97;5055468;28;20116;-66
2021/09/16 10:40:42;;;;;;;16.92;8.55;;;;;;;29.86;28.94;96668.88;5055340;28;20119;-62
2021/09/16 10:43:07;;;;;;;14.57;9.38;;;;;;;29.68;29.53;96671.84;5055452;28;20113;-64
2021/09/16 10:45:39;;;;;;;13.77;8.48;;;;;;;29.55;29.42;96668.88;5055301;28;20022;-62
2021/09/16 10:48:24;;;;;;;16.50;8.95;;;;;;;29.34;30.39;96673.81;5055340;28;20104;-65
2021/09/16 10:50:54;;;;;;;17.17;9.70;;;;;;;29.38;31.91;96677.00;5055442;28;20025;-66
2021/09/16 10:53:36;;;;;;;20.23;9.10;;;;;;;29.50;33.61;96667.50;5055317;28;20025;-64
2021/09/16 10:56:26;;;;;;;21.63;8.65;;;;;;;29.66;33.10;96667.63;5055180;28;20045;-66
2021/09/16 10:58:53;;;;;;;11.73;8.05;;;;;;;29.59;30.55;96668.34;5054676;28;20033;-62
2021/09/16 11:01:49;;;;;;;24.33;9.50;;;;;;;29.37;29.69;96675.31;5054404;28;20033;-63
2021/09/16 11:04:20;;;;;;;14.80;8.80;;;;;;;29.25;29.76;96664.94;5054983;28;20080;-62
2021/09/16 11:06:46;;;;;;;11.67;9.10;;;;;;;29.04;30.98;96660.13;5054849;28;20024;-65
2021/09/16 11:09:13;;;;;;;12.77;8.95;;;;;;;28.97;31.29;96653.75;5054930;28;20266;-64
2021/09/16 11:11:54;;;;;;;15.82;9.23;;;;;;;28.72;33.12;96651.09;5054830;28;20112;-64
2021/09/16 11:14:26;;;;;;;12.32;8.63;;;;;;;28.86;33.09;96649.53;5054866;28;20032;-64
2021/09/16 11:16:58;;;;;;;16.85;9.05;;;;;;;29.16;34.00;96651.69;5054734;28;20024;-61
2021/09/16 11:19:24;;;;;;;15.77;9.40;;;;;;;29.34;34.51;96640.66;5054559;28;20039;-62
2021/09/16 11:22:02;;;;;;;19.98;9.27;;;;;;;29.54;30.50;96635.69;5054607;28;20017;-62